sensor_id;sensor_type;location;lat;lon;timestamp;pressure;altitude;pressure_sealevel;temperature;humidity
10720;BME280;5411;58.386;15.560;2023-02-15T00:00:11;101947.00;;;4.06;100.00
10720;BME280;5411;58.386;15.560;2023-02-15T00:02:39;101946.50;;;4.01;100.00
10720;BME280;5411;58.386;15.560;2023-02-15T00:05:08;101955.28;;;4.01;100.00
10720;BME280;5411;58.386;15.560;2023-02-15T00:07:37;101949.16;;;4.01;100.00
10720;BME280;5411;58.386;15.560;2023-02-15T00:10:07;101936.06;;;3.99;100.00
10720;BME280;5411;58.386;15.560;2023-02-15T00:12:35;101939.66;;;3.98;100.00
10720;BME280;5411;58.386;15.560;2023-02-15T00:15:04;101947.00;;;3.94;100.00
10720;BME280;5411;58.386;15.560;2023-02-15T00:17:32;101935.06;;;3.89;100.00
10720;BME280;5411;58.386;15.560;2023-02-15T00:20:01;101938.09;;;3.96;100.00
10720;BME280;5411;58.386;15.560;2023-02-15T00:22:29;101938.94;;;3.96;100.00
10720;BME280;5411;58.386;15.560;2023-02-15T00:24:59;101930.38;;;3.92;100.00
10720;BME280;5411;58.386;15.560;2023-02-15T00:27:27;101932.19;;;3.92;100.00
10720;BME280;5411;58.386;15.560;2023-02-15T00:29:55;101934.72;;;3.93;100.00
10720;BME280;5411;58.386;15.560;2023-02-15T00:32:24;101938.94;;;3.96;100.00
10720;BME280;5411;58.386;15.560;2023-02-15T00:35:01;101934.38;;;3.98;100.00
10720;BME280;5411;58.386;15.560;2023-02-15T00:37:30;101930.88;;;3.98;100.00
10720;BME280;5411;58.386;15.560;2023-02-15T00:39:59;101923.91;;;3.97;100.00
10720;BME280;5411;58.386;15.560;2023-02-15T00:42:28;101930.88;;;3.98;100.00
10720;BME280;5411;58.386;15.560;2023-02-15T00:44:56;101933.41;;;3.99;100.00
10720;BME280;5411;58.386;15.560;2023-02-15T00:47:32;101929.31;;;3.95;100.00
10720;BME280;5411;58.386;15.560;2023-02-15T00:50:01;101924.75;;;3.97;100.00
10720;BME280;5411;58.386;15.560;2023-02-15T00:52:30;101917.88;;;3.94;100.00
10720;BME280;5411;58.386;15.560;2023-02-15T00:55:00;101914.50;;;3.92;100.00
10720;BME280;5411;58.386;15.560;2023-02-15T00:57:29;101917.16;;;3.92;100.00
10720;BME280;5411;58.386;15.560;2023-02-15T00:59:57;101908.38;;;3.92;100.00
10720;BME280;5411;58.386;15.560;2023-02-15T01:02:37;101900.41;;;3.92;100.00
10720;BME280;5411;58.386;15.560;2023-02-15T01:05:06;101900.41;;;3.92;100.00
10720;BME280;5411;58.386;15.560;2023-02-15T01:07:34;101895.13;;;3.92;100.00
10720;BME280;5411;58.386;15.560;2023-02-15T01:10:05;101899.47;;;3.93;100.00
10720;BME280;5411;58.386;15.560;2023-02-15T01:12:34;101894.28;;;3.91;100.00
10720;BME280;5411;58.386;15.560;2023-02-15T01:15:02;101899.22;;;3.96;100.00
10720;BME280;5411;58.386;15.560;2023-02-15T01:17:31;101892.13;;;3.97;100.00
10720;BME280;5411;58.386;15.560;2023-02-15T01:20:00;101892.69;;;4.00;100.00
10720;BME280;5411;58.386;15.560;2023-02-15T01:22:28;101891.16;;;3.98;100.00
10720;BME280;5411;58.386;15.560;2023-02-15T01:24:56;101886.00;;;3.96;100.00
10720;BME280;5411;58.386;15.560;2023-02-15T01:27:29;101885.16;;;3.96;100.00
10720;BME280;5411;58.386;15.560;2023-02-15T01:29:57;101882.50;;;3.96;100.00
10720;BME280;5411;58.386;15.560;2023-02-15T01:32:26;101880.94;;;3.93;100.00
10720;BME280;5411;58.386;15.560;2023-02-15T01:34:54;101885.38;;;3.92;100.00
10720;BME280;5411;58.386;15.560;2023-02-15T01:37:22;101876.84;;;3.89;100.00
10720;BME280;5411;58.386;15.560;2023-02-15T01:39:51;101873.34;;;3.88;100.00
10720;BME280;5411;58.386;15.560;2023-02-15T01:42:21;101871.94;;;3.84;100.00
10720;BME280;5411;58.386;15.560;2023-02-15T01:44:52;101877.78;;;3.88;100.00
10720;BME280;5411;58.386;15.560;2023-02-15T01:47:24;101869.97;;;3.86;100.00
10720;BME280;5411;58.386;15.560;2023-02-15T01:50:02;101868.66;;;3.81;100.00
10720;BME280;5411;58.386;15.560;2023-02-15T01:52:33;101870.81;;;3.76;100.00
10720;BME280;5411;58.386;15.560;2023-02-15T01:55:04;101863.84;;;3.75;100.00
10720;BME280;5411;58.386;15.560;2023-02-15T01:57:33;101864.97;;;3.72;100.00
10720;BME280;5411;58.386;15.560;2023-02-15T02:00:06;101866.75;;;3.72;100.00
10720;BME280;5411;58.386;15.560;2023-02-15T02:02:36;101865.81;;;3.73;100.00
10720;BME280;5411;58.386;15.560;2023-02-15T02:05:06;101855.06;;;3.74;100.00
10720;BME280;5411;58.386;15.560;2023-02-15T02:07:38;101849.66;;;3.76;100.00
10720;BME280;5411;58.386;15.560;2023-02-15T02:10:11;101848.81;;;3.75;100.00
10720;BME280;5411;58.386;15.560;2023-02-15T02:12:40;101843.63;;;3.74;100.00
10720;BME280;5411;58.386;15.560;2023-02-15T02:15:12;101843.78;;;3.72;100.00
10720;BME280;5411;58.386;15.560;2023-02-15T02:17:49;101850.88;;;3.72;100.00
10720;BME280;5411;58.386;15.560;2023-02-15T02:23:38;101834.50;;;3.67;100.00
10720;BME280;5411;58.386;15.560;2023-02-15T02:26:55;101830.69;;;3.71;100.00
10720;BME280;5411;58.386;15.560;2023-02-15T02:29:55;101826.22;;;3.71;100.00
10720;BME280;5411;58.386;15.560;2023-02-15T02:32:53;101830.91;;;3.68;100.00
10720;BME280;5411;58.386;15.560;2023-02-15T02:35:33;101821.41;;;3.65;100.00
10720;BME280;5411;58.386;15.560;2023-02-15T02:38:12;101814.53;;;3.63;100.00
10720;BME280;5411;58.386;15.560;2023-02-15T02:40:52;101809.50;;;3.59;100.00
10720;BME280;5411;58.386;15.560;2023-02-15T02:43:29;101811.31;;;3.59;100.00
10720;BME280;5411;58.386;15.560;2023-02-15T02:46:05;101805.88;;;3.61;100.00
10720;BME280;5411;58.386;15.560;2023-02-15T02:48:36;101798.91;;;3.59;100.00
10720;BME280;5411;58.386;15.560;2023-02-15T02:51:06;101791.13;;;3.58;100.00
10720;BME280;5411;58.386;15.560;2023-02-15T02:53:35;101800.47;;;3.62;100.00
10720;BME280;5411;58.386;15.560;2023-02-15T02:56:09;101793.75;;;3.58;100.00
10720;BME280;5411;58.386;15.560;2023-02-15T02:58:46;101792.66;;;3.61;100.00
10720;BME280;5411;58.386;15.560;2023-02-15T03:01:22;101790.28;;;3.57;100.00
10720;BME280;5411;58.386;15.560;2023-02-15T03:03:56;101785.94;;;3.56;100.00
10720;BME280;5411;58.386;15.560;2023-02-15T03:06:31;101790.50;;;3.54;100.00
10720;BME280;5411;58.386;15.560;2023-02-15T03:09:06;101781.00;;;3.52;100.00
10720;BME280;5411;58.386;15.560;2023-02-15T03:11:48;101780.16;;;3.51;100.00
10720;BME280;5411;58.386;15.560;2023-02-15T03:14:18;101770.53;;;3.50;100.00
10720;BME280;5411;58.386;15.560;2023-02-15T03:16:47;101772.22;;;3.51;100.00
10720;BME280;5411;58.386;15.560;2023-02-15T03:19:23;101769.34;;;3.54;100.00
10720;BME280;5411;58.386;15.560;2023-02-15T03:21:56;101765.50;;;3.58;100.00
10720;BME280;5411;58.386;15.560;2023-02-15T03:24:33;101762.69;;;3.60;100.00
10720;BME280;5411;58.386;15.560;2023-02-15T03:27:04;101763.19;;;3.65;100.00
10720;BME280;5411;58.386;15.560;2023-02-15T03:29:35;101754.41;;;3.65;100.00
10720;BME280;5411;58.386;15.560;2023-02-15T03:32:08;101764.88;;;3.66;100.00
10720;BME280;5411;58.386;15.560;2023-02-15T03:34:39;101753.56;;;3.64;100.00
10720;BME280;5411;58.386;15.560;2023-02-15T03:37:13;101751.88;;;3.63;100.00
10720;BME280;5411;58.386;15.560;2023-02-15T03:39:49;101743.81;;;3.65;100.00
10720;BME280;5411;58.386;15.560;2023-02-15T03:42:25;101749.84;;;3.67;100.00
10720;BME280;5411;58.386;15.560;2023-02-15T03:44:58;101738.88;;;3.71;100.00
10720;BME280;5411;58.386;15.560;2023-02-15T03:47:33;101743.78;;;3.76;100.00
10720;BME280;5411;58.386;15.560;2023-02-15T03:50:08;101736.56;;;3.78;100.00
10720;BME280;5411;58.386;15.560;2023-02-15T03:52:53;101735.50;;;3.80;100.00
10720;BME280;5411;58.386;15.560;2023-02-15T03:55:22;101726.59;;;3.81;100.00
10720;BME280;5411;58.386;15.560;2023-02-15T03:57:51;101719.59;;;3.80;100.00
10720;BME280;5411;58.386;15.560;2023-02-15T04:00:40;101719.59;;;3.80;100.00
10720;BME280;5411;58.386;15.560;2023-02-15T04:03:33;101709.97;;;3.79;100.00
10720;BME280;5411;58.386;15.560;2023-02-15T04:06:06;101709.13;;;3.79;100.00
10720;BME280;5411;58.386;15.560;2023-02-15T04:08:35;101708.19;;;3.80;100.00
10720;BME280;5411;58.386;15.560;2023-02-15T04:11:17;101709.25;;;3.77;100.00
10720;BME280;5411;58.386;15.560;2023-02-15T04:13:46;101709.25;;;3.77;100.00
10720;BME280;5411;58.386;15.560;2023-02-15T04:16:14;101709.38;;;3.76;100.00
10720;BME280;5411;58.386;15.560;2023-02-15T04:18:43;101705.16;;;3.73;100.00
10720;BME280;5411;58.386;15.560;2023-02-15T04:21:30;101707.97;;;3.72;100.00
10720;BME280;5411;58.386;15.560;2023-02-15T04:24:16;101709.78;;;3.71;100.00
10720;BME280;5411;58.386;15.560;2023-02-15T04:27:03;101714.22;;;3.71;100.00
10720;BME280;5411;58.386;15.560;2023-02-15T04:29:32;101710.03;;;3.68;100.00
10720;BME280;5411;58.386;15.560;2023-02-15T04:32:00;101710.88;;;3.69;100.00
10720;BME280;5411;58.386;15.560;2023-02-15T04:34:29;101709.91;;;3.70;100.00
10720;BME280;5411;58.386;15.560;2023-02-15T04:36:59;101701.25;;;3.68;100.00
10720;BME280;5411;58.386;15.560;2023-02-15T04:39:27;101698.34;;;3.71;100.00
10720;BME280;5411;58.386;15.560;2023-02-15T04:41:55;101697.63;;;3.69;100.00
10720;BME280;5411;58.386;15.560;2023-02-15T04:44:24;101694.97;;;3.69;100.00
10720;BME280;5411;58.386;15.560;2023-02-15T04:46:52;101699.56;;;3.67;100.00
10720;BME280;5411;58.386;15.560;2023-02-15T04:49:21;101696.06;;;3.66;100.00
10720;BME280;5411;58.386;15.560;2023-02-15T04:51:49;101689.81;;;3.67;100.00
10720;BME280;5411;58.386;15.560;2023-02-15T04:54:20;101694.50;;;3.64;100.00
10720;BME280;5411;58.386;15.560;2023-02-15T04:56:48;101687.53;;;3.63;100.00
10720;BME280;5411;58.386;15.560;2023-02-15T04:59:17;101695.59;;;3.61;100.00
10720;BME280;5411;58.386;15.560;2023-02-15T05:01:45;101692.09;;;3.61;100.00
10720;BME280;5411;58.386;15.560;2023-02-15T05:04:13;101690.69;;;3.56;100.00
10720;BME280;5411;58.386;15.560;2023-02-15T05:06:43;101696.34;;;3.52;100.00
10720;BME280;5411;58.386;15.560;2023-02-15T05:09:12;101686.00;;;3.49;100.00
10720;BME280;5411;58.386;15.560;2023-02-15T05:11:41;101690.56;;;3.47;100.00
10720;BME280;5411;58.386;15.560;2023-02-15T05:14:10;101681.09;;;3.44;100.00
10720;BME280;5411;58.386;15.560;2023-02-15T05:16:38;101692.06;;;3.40;100.00
10720;BME280;5411;58.386;15.560;2023-02-15T05:19:06;101691.44;;;3.36;100.00
10720;BME280;5411;58.386;15.560;2023-02-15T05:21:35;101682.22;;;3.31;100.00
10720;BME280;5411;58.386;15.560;2023-02-15T05:24:04;101681.72;;;3.26;100.00
10720;BME280;5411;58.386;15.560;2023-02-15T05:26:54;101682.09;;;3.21;100.00
10720;BME280;5411;58.386;15.560;2023-02-15T05:29:39;101680.69;;;3.17;100.00
10720;BME280;5411;58.386;15.560;2023-02-15T05:32:07;101686.09;;;3.15;100.00
10720;BME280;5411;58.386;15.560;2023-02-15T05:34:35;101682.47;;;3.16;100.00
10720;BME280;5411;58.386;15.560;2023-02-15T05:37:04;101679.34;;;3.11;100.00
10720;BME280;5411;58.386;15.560;2023-02-15T05:39:33;101679.94;;;3.15;100.00
10720;BME280;5411;58.386;15.560;2023-02-15T05:42:03;101680.78;;;3.15;100.00
10720;BME280;5411;58.386;15.560;2023-02-15T05:44:32;101680.06;;;3.13;100.00
10720;BME280;5411;58.386;15.560;2023-02-15T05:47:01;101674.78;;;3.13;100.00
10720;BME280;5411;58.386;15.560;2023-02-15T05:49:29;101682.09;;;3.10;100.00
10720;BME280;5411;58.386;15.560;2023-02-15T05:51:58;101675.88;;;3.11;100.00
10720;BME280;5411;58.386;15.560;2023-02-15T05:54:26;101672.50;;;3.09;100.00
10720;BME280;5411;58.386;15.560;2023-02-15T05:56:55;101678.63;;;3.09;100.00
10720;BME280;5411;58.386;15.560;2023-02-15T05:59:25;101675.53;;;3.04;100.00
10720;BME280;5411;58.386;15.560;2023-02-15T06:01:57;101673.00;;;3.03;100.00
10720;BME280;5411;58.386;15.560;2023-02-15T06:04:25;101671.91;;;2.94;100.00
10720;BME280;5411;58.386;15.560;2023-02-15T06:06:54;101670.09;;;2.95;100.00
10720;BME280;5411;58.386;15.560;2023-02-15T06:09:22;101664.81;;;2.95;100.00
10720;BME280;5411;58.386;15.560;2023-02-15T06:11:51;101659.41;;;2.96;100.00
10720;BME280;5411;58.386;15.560;2023-02-15T06:14:19;101662.91;;;2.97;100.00
10720;BME280;5411;58.386;15.560;2023-02-15T06:16:49;101656.53;;;2.99;100.00
10720;BME280;5411;58.386;15.560;2023-02-15T06:19:17;101654.72;;;3.00;100.00
10720;BME280;5411;58.386;15.560;2023-02-15T06:21:46;101661.69;;;3.01;100.00
10720;BME280;5411;58.386;15.560;2023-02-15T06:24:15;101653.06;;;2.99;100.00
10720;BME280;5411;58.386;15.560;2023-02-15T06:26:43;101653.28;;;2.96;100.00
10720;BME280;5411;58.386;15.560;2023-02-15T06:29:11;101658.69;;;2.94;100.00
10720;BME280;5411;58.386;15.560;2023-02-15T06:31:40;101656.19;;;2.93;100.00
10720;BME280;5411;58.386;15.560;2023-02-15T06:34:10;101658.09;;;3.02;100.00
10720;BME280;5411;58.386;15.560;2023-02-15T06:36:38;101649.22;;;3.03;100.00
10720;BME280;5411;58.386;15.560;2023-02-15T06:39:06;101644.75;;;3.03;100.00
10720;BME280;5411;58.386;15.560;2023-02-15T06:41:35;101655.22;;;3.05;100.00
10720;BME280;5411;58.386;15.560;2023-02-15T06:44:03;101646.31;;;3.06;100.00
10720;BME280;5411;58.386;15.560;2023-02-15T06:46:31;101640.88;;;3.07;100.00
10720;BME280;5411;58.386;15.560;2023-02-15T06:49:00;101644.88;;;3.13;100.00
10720;BME280;5411;58.386;15.560;2023-02-15T06:51:29;101640.06;;;3.18;100.00
10720;BME280;5411;58.386;15.560;2023-02-15T06:54:00;101640.63;;;3.21;100.00
10720;BME280;5411;58.386;15.560;2023-02-15T06:56:29;101641.47;;;3.22;100.00
10720;BME280;5411;58.386;15.560;2023-02-15T06:58:58;101644.00;;;3.23;100.00
10720;BME280;5411;58.386;15.560;2023-02-15T07:01:26;101639.53;;;3.24;100.00
10720;BME280;5411;58.386;15.560;2023-02-15T07:03:55;101642.06;;;3.26;100.00
10720;BME280;5411;58.386;15.560;2023-02-15T07:06:23;101636.31;;;3.20;100.00
10720;BME280;5411;58.386;15.560;2023-02-15T07:08:53;101631.72;;;3.22;100.00
10720;BME280;5411;58.386;15.560;2023-02-15T07:11:21;101638.25;;;3.18;100.00
10720;BME280;5411;58.386;15.560;2023-02-15T07:14:07;101638.94;;;3.20;100.00
10720;BME280;5411;58.386;15.560;2023-02-15T07:16:35;101633.41;;;3.23;100.00
10720;BME280;5411;58.386;15.560;2023-02-15T07:19:03;101628.72;;;3.27;100.00
10720;BME280;5411;58.386;15.560;2023-02-15T07:21:32;101631.97;;;3.31;100.00
10720;BME280;5411;58.386;15.560;2023-02-15T07:24:02;101628.38;;;3.32;100.00
10720;BME280;5411;58.386;15.560;2023-02-15T07:26:31;101628.22;;;3.33;100.00
10720;BME280;5411;58.386;15.560;2023-02-15T07:29:00;101628.94;;;3.35;100.00
10720;BME280;5411;58.386;15.560;2023-02-15T07:31:28;101628.69;;;3.38;100.00
10720;BME280;5411;58.386;15.560;2023-02-15T07:33:56;101627.72;;;3.39;100.00
10720;BME280;5411;58.386;15.560;2023-02-15T07:36:25;101629.78;;;3.36;100.00
10720;BME280;5411;58.386;15.560;2023-02-15T07:38:53;101625.31;;;3.36;100.00
10720;BME280;5411;58.386;15.560;2023-02-15T07:41:23;101618.09;;;3.38;100.00
10720;BME280;5411;58.386;15.560;2023-02-15T07:43:52;101631.47;;;3.37;100.00
10720;BME280;5411;58.386;15.560;2023-02-15T07:46:20;101628.81;;;3.37;100.00
10720;BME280;5411;58.386;15.560;2023-02-15T07:48:48;101621.97;;;3.34;100.00
10720;BME280;5411;58.386;15.560;2023-02-15T07:51:17;101621.13;;;3.34;100.00
10720;BME280;5411;58.386;15.560;2023-02-15T07:53:47;101615.81;;;3.34;100.00
10720;BME280;5411;58.386;15.560;2023-02-15T07:56:15;101618.03;;;3.29;100.00
10720;BME280;5411;58.386;15.560;2023-02-15T07:58:45;101621.63;;;3.28;100.00
10720;BME280;5411;58.386;15.560;2023-02-15T08:01:24;101617.31;;;3.27;100.00
10720;BME280;5411;58.386;15.560;2023-02-15T08:03:54;101616.47;;;3.26;100.00
10720;BME280;5411;58.386;15.560;2023-02-15T08:06:25;101612.84;;;3.27;100.00
10720;BME280;5411;58.386;15.560;2023-02-15T08:08:53;101616.22;;;3.29;100.00
10720;BME280;5411;58.386;15.560;2023-02-15T08:11:23;101609.56;;;3.35;100.00
10720;BME280;5411;58.386;15.560;2023-02-15T08:14:02;101607.28;;;3.41;100.00
10720;BME280;5411;58.386;15.560;2023-02-15T08:16:33;101611.81;;;3.50;100.00
10720;BME280;5411;58.386;15.560;2023-02-15T08:19:04;101604.22;;;3.57;100.00
10720;BME280;5411;58.386;15.560;2023-02-15T08:21:34;101609.97;;;3.62;100.00
10720;BME280;5411;58.386;15.560;2023-02-15T08:24:04;101601.41;;;3.70;100.00
10720;BME280;5411;58.386;15.560;2023-02-15T08:26:32;101595.84;;;3.73;100.00
10720;BME280;5411;58.386;15.560;2023-02-15T08:29:03;101592.22;;;3.74;100.00
10720;BME280;5411;58.386;15.560;2023-02-15T08:31:31;101585.28;;;3.73;100.00
10720;BME280;5411;58.386;15.560;2023-02-15T08:34:00;101593.34;;;3.71;100.00
10720;BME280;5411;58.386;15.560;2023-02-15T08:36:29;101582.63;;;3.73;100.00
10720;BME280;5411;58.386;15.560;2023-02-15T08:38:59;101583.59;;;3.72;100.00
10720;BME280;5411;58.386;15.560;2023-02-15T08:41:29;101574.69;;;3.73;100.00
10720;BME280;5411;58.386;15.560;2023-02-15T08:43:59;101580.66;;;3.75;100.00
10720;BME280;5411;58.386;15.560;2023-02-15T08:46:31;101581.50;;;3.75;100.00
10720;BME280;5411;58.386;15.560;2023-02-15T08:49:01;101578.97;;;3.74;100.00
10720;BME280;5411;58.386;15.560;2023-02-15T08:51:31;101573.97;;;3.71;100.00
10720;BME280;5411;58.386;15.560;2023-02-15T08:54:03;101570.59;;;3.69;100.00
10720;BME280;5411;58.386;15.560;2023-02-15T08:56:33;101573.38;;;3.67;100.00
10720;BME280;5411;58.386;15.560;2023-02-15T08:59:02;101576.41;;;3.63;100.00
10720;BME280;5411;58.386;15.560;2023-02-15T09:01:33;101570.38;;;3.61;100.00
10720;BME280;5411;58.386;15.560;2023-02-15T09:04:04;101564.53;;;3.57;100.00
10720;BME280;5411;58.386;15.560;2023-02-15T09:06:35;101565.88;;;3.51;100.00
10720;BME280;5411;58.386;15.560;2023-02-15T09:09:04;101571.28;;;3.50;100.00
10720;BME280;5411;58.386;15.560;2023-02-15T09:11:34;101572.84;;;3.52;100.00
10720;BME280;5411;58.386;15.560;2023-02-15T09:14:04;101570.78;;;3.56;100.00
10720;BME280;5411;58.386;15.560;2023-02-15T09:16:37;101563.41;;;3.59;100.00
10720;BME280;5411;58.386;15.560;2023-02-15T09:19:06;101569.72;;;3.58;100.00
10720;BME280;5411;58.386;15.560;2023-02-15T09:21:37;101567.19;;;3.57;100.00
10720;BME280;5411;58.386;15.560;2023-02-15T09:24:09;101569.56;;;3.60;100.00
10720;BME280;5411;58.386;15.560;2023-02-15T09:26:40;101569.56;;;3.60;100.00
10720;BME280;5411;58.386;15.560;2023-02-15T09:29:09;101562.84;;;3.56;100.00
10720;BME280;5411;58.386;15.560;2023-02-15T09:31:44;101556.00;;;3.53;100.00
10720;BME280;5411;58.386;15.560;2023-02-15T09:34:13;101553.63;;;3.50;100.00
10720;BME280;5411;58.386;15.560;2023-02-15T09:36:43;101544.97;;;3.48;100.00
10720;BME280;5411;58.386;15.560;2023-02-15T09:39:14;101545.81;;;3.49;100.00
10720;BME280;5411;58.386;15.560;2023-02-15T09:45:17;101545.56;;;3.52;100.00
10720;BME280;5411;58.386;15.560;2023-02-15T09:51:01;101542.13;;;3.61;100.00
10720;BME280;5411;58.386;15.560;2023-02-15T09:53:47;101535.03;;;3.62;100.00
10720;BME280;5411;58.386;15.560;2023-02-15T09:56:28;101535.16;;;3.60;100.00
10720;BME280;5411;58.386;15.560;2023-02-15T09:59:11;101531.09;;;3.56;100.00
10720;BME280;5411;58.386;15.560;2023-02-15T10:01:51;101544.59;;;3.53;100.00
10720;BME280;5411;58.386;15.560;2023-02-15T10:04:41;101533.28;;;3.51;100.00
10720;BME280;5411;58.386;15.560;2023-02-15T10:07:19;101528.84;;;3.51;100.00
10720;BME280;5411;58.386;15.560;2023-02-15T10:10:03;101522.72;;;3.51;100.00
10720;BME280;5411;58.386;15.560;2023-02-15T10:12:53;101515.63;;;3.51;100.00
10720;BME280;5411;58.386;15.560;2023-02-15T10:15:39;101513.69;;;3.53;100.00
10720;BME280;5411;58.386;15.560;2023-02-15T10:18:22;101509.22;;;3.54;100.00
10720;BME280;5411;58.386;15.560;2023-02-15T10:20:56;101513.56;;;3.55;100.00
10720;BME280;5411;58.386;15.560;2023-02-15T10:23:43;101499.50;;;3.54;100.00
10720;BME280;5411;58.386;15.560;2023-02-15T10:26:18;101502.00;;;3.56;100.00
10720;BME280;5411;58.386;15.560;2023-02-15T10:28:48;101502.91;;;3.45;100.00
10720;BME280;5411;58.386;15.560;2023-02-15T10:31:23;101498.84;;;3.41;100.00
10720;BME280;5411;58.386;15.560;2023-02-15T10:34:18;101505.69;;;3.44;100.00
10720;BME280;5411;58.386;15.560;2023-02-15T10:37:07;101498.59;;;3.44;100.00
10720;BME280;5411;58.386;15.560;2023-02-15T10:39:48;101508.50;;;3.52;100.00
10720;BME280;5411;58.386;15.560;2023-02-15T10:42:28;101505.50;;;3.56;100.00
10720;BME280;5411;58.386;15.560;2023-02-15T10:45:12;101498.00;;;3.62;100.00
10720;BME280;5411;58.386;15.560;2023-02-15T10:50:47;101508.78;;;3.70;100.00
10720;BME280;5411;58.386;15.560;2023-02-15T10:53:27;101508.66;;;3.71;100.00
10720;BME280;5411;58.386;15.560;2023-02-15T10:56:04;101505.03;;;3.72;100.00
10720;BME280;5411;58.386;15.560;2023-02-15T10:58:48;101505.88;;;3.73;100.00
10720;BME280;5411;58.386;15.560;2023-02-15T11:01:21;101498.75;;;3.73;100.00
10720;BME280;5411;58.386;15.560;2023-02-15T11:04:08;101503.91;;;3.75;100.00
10720;BME280;5411;58.386;15.560;2023-02-15T11:06:47;101499.47;;;3.75;100.00
10720;BME280;5411;58.386;15.560;2023-02-15T11:09:21;101499.34;;;3.77;100.00
10720;BME280;5411;58.386;15.560;2023-02-15T11:11:52;101500.31;;;3.76;100.00
10720;BME280;5411;58.386;15.560;2023-02-15T11:14:37;101499.47;;;3.75;100.00
10720;BME280;5411;58.386;15.560;2023-02-15T11:17:11;101492.38;;;3.76;100.00
10720;BME280;5411;58.386;15.560;2023-02-15T11:19:44;101494.88;;;3.77;100.00
10720;BME280;5411;58.386;15.560;2023-02-15T11:22:17;101489.34;;;3.80;100.00
10720;BME280;5411;58.386;15.560;2023-02-15T11:24:47;101475.13;;;3.81;100.00
10720;BME280;5411;58.386;15.560;2023-02-15T11:27:19;101478.50;;;3.83;99.13
10720;BME280;5411;58.386;15.560;2023-02-15T11:29:59;101481.41;;;3.80;99.08
10720;BME280;5411;58.386;15.560;2023-02-15T11:32:30;101485.25;;;3.76;98.62
10720;BME280;5411;58.386;15.560;2023-02-15T11:35:02;101476.91;;;3.71;99.00
10720;BME280;5411;58.386;15.560;2023-02-15T11:37:37;101470.44;;;3.64;99.26
10720;BME280;5411;58.386;15.560;2023-02-15T11:40:17;101475.34;;;3.69;98.83
10720;BME280;5411;58.386;15.560;2023-02-15T11:42:48;101476.56;;;3.65;98.54
10720;BME280;5411;58.386;15.560;2023-02-15T11:45:22;101462.69;;;3.51;99.17
10720;BME280;5411;58.386;15.560;2023-02-15T11:47:53;101460.72;;;3.44;99.72
10720;BME280;5411;58.386;15.560;2023-02-15T11:50:24;101456.94;;;3.46;99.34
10720;BME280;5411;58.386;15.560;2023-02-15T11:52:57;101451.81;;;3.45;100.00
10720;BME280;5411;58.386;15.560;2023-02-15T11:55:28;101443.59;;;3.48;100.00
10720;BME280;5411;58.386;15.560;2023-02-15T11:58:01;101439.72;;;3.52;99.74
10720;BME280;5411;58.386;15.560;2023-02-15T12:00:34;101436.25;;;3.51;99.50
10720;BME280;5411;58.386;15.560;2023-02-15T12:03:14;101428.78;;;3.56;100.00
10720;BME280;5411;58.386;15.560;2023-02-15T12:05:46;101429.19;;;3.62;100.00
10720;BME280;5411;58.386;15.560;2023-02-15T12:08:17;101426.41;;;3.63;99.13
10720;BME280;5411;58.386;15.560;2023-02-15T12:11:04;101417.47;;;3.54;99.47
10720;BME280;5411;58.386;15.560;2023-02-15T12:13:34;101412.44;;;3.51;99.73
10720;BME280;5411;58.386;15.560;2023-02-15T12:16:06;101412.19;;;3.54;99.77
10720;BME280;5411;58.386;15.560;2023-02-15T12:18:40;101401.47;;;3.56;99.96
10720;BME280;5411;58.386;15.560;2023-02-15T12:21:12;101395.94;;;3.59;99.94
10720;BME280;5411;58.386;15.560;2023-02-15T12:23:46;101401.50;;;3.66;100.00
10720;BME280;5411;58.386;15.560;2023-02-15T12:26:23;101395.13;;;3.68;100.00
10720;BME280;5411;58.386;15.560;2023-02-15T12:28:53;101395.41;;;3.75;100.00
10720;BME280;5411;58.386;15.560;2023-02-15T12:31:31;101391.41;;;3.80;99.14
10720;BME280;5411;58.386;15.560;2023-02-15T12:34:02;101392.00;;;3.84;99.36
10720;BME280;5411;58.386;15.560;2023-02-15T12:36:38;101389.06;;;3.87;99.42
10720;BME280;5411;58.386;15.560;2023-02-15T12:39:20;101388.91;;;3.88;99.02
10720;BME280;5411;58.386;15.560;2023-02-15T12:42:03;101387.94;;;3.89;98.75
10720;BME280;5411;58.386;15.560;2023-02-15T12:44:33;101374.97;;;3.86;98.27
10720;BME280;5411;58.386;15.560;2023-02-15T12:47:05;101376.81;;;3.86;98.68
10720;BME280;5411;58.386;15.560;2023-02-15T12:49:35;101371.66;;;3.84;98.92
10720;BME280;5411;58.386;15.560;2023-02-15T12:52:05;101376.94;;;3.84;98.86
10720;BME280;5411;58.386;15.560;2023-02-15T12:54:37;101374.31;;;3.84;98.31
10720;BME280;5411;58.386;15.560;2023-02-15T12:57:29;101375.28;;;3.83;98.50
10720;BME280;5411;58.386;15.560;2023-02-15T12:59:59;101377.06;;;3.83;98.85
10720;BME280;5411;58.386;15.560;2023-02-15T13:02:33;101374.94;;;3.77;98.42
10720;BME280;5411;58.386;15.560;2023-02-15T13:05:26;101365.06;;;3.69;98.64
10720;BME280;5411;58.386;15.560;2023-02-15T13:07:58;101375.88;;;3.66;99.39
10720;BME280;5411;58.386;15.560;2023-02-15T13:10:29;101377.81;;;3.64;99.55
10720;BME280;5411;58.386;15.560;2023-02-15T13:13:00;101369.88;;;3.64;99.67
10720;BME280;5411;58.386;15.560;2023-02-15T13:15:34;101363.63;;;3.65;99.54
10720;BME280;5411;58.386;15.560;2023-02-15T13:18:05;101363.63;;;3.65;99.33
10720;BME280;5411;58.386;15.560;2023-02-15T13:20:39;101360.84;;;3.67;99.48
10720;BME280;5411;58.386;15.560;2023-02-15T13:23:19;101357.63;;;3.63;99.57
10720;BME280;5411;58.386;15.560;2023-02-15T13:25:51;101349.28;;;3.58;99.88
10720;BME280;5411;58.386;15.560;2023-02-15T13:28:23;101348.69;;;3.54;100.00
10720;BME280;5411;58.386;15.560;2023-02-15T13:30:53;101345.34;;;3.52;100.00